Time;durP1;ratioP1;P1;durP2;ratioP2;P2;SDS_P1;SDS_P2;PMS_P1;PMS_P2;Temp;Humidity;BMP_temperature;BMP_pressure;BME280_temperature;BME280_humidity;BME280_pressure;Samples;Min_cycle;Max_cycle;Signal;HPM_P1;HPM_P2
2022/12/30 00:01:27;;;;;;;0.20;0.20;;;;;;;3.11;100.00;96097.72;4958200;28;20098;-75
2022/12/30 00:04:13;;;;;;;0.10;0.10;;;;;;;3.08;100.00;96098.94;4964018;28;20058;-75
2022/12/30 00:07:00;;;;;;;0.20;0.20;;;;;;;3.03;100.00;96110.16;4964432;28;20129;-75
2022/12/30 00:09:45;;;;;;;0.20;0.20;;;;;;;3.02;100.00;96105.06;4964501;28;20034;-75
2022/12/30 00:34:09;;;;;;;0.20;0.20;;;;;;;2.69;100.00;96132.41;4944921;28;20058;-75
2022/12/30 00:36:56;;;;;;;0.20;0.20;;;;;;;2.63;100.00;96137.72;4944568;28;20066;-76
2022/12/30 00:39:42;;;;;;;0.10;0.10;;;;;;;2.59;100.00;96131.22;4945729;28;20047;-76
2022/12/30 00:45:40;;;;;;;0.20;0.20;;;;;;;2.58;100.00;96145.47;4947165;28;20094;-72
2022/12/30 00:57:38;;;;;;;0.10;0.10;;;;;;;2.49;100.00;96158.88;4945584;28;20496;-73
2022/12/30 01:00:24;;;;;;;0.20;0.20;;;;;;;2.46;100.00;96154.00;4946829;28;20138;-75
2022/12/30 01:03:10;;;;;;;0.20;0.20;;;;;;;2.43;100.00;96156.25;4965862;28;20609;-74
2022/12/30 01:05:56;;;;;;;0.20;0.20;;;;;;;2.34;100.00;96150.38;4964065;28;20038;-75
2022/12/30 01:08:42;;;;;;;0.20;0.20;;;;;;;2.38;100.00;96150.75;4965093;28;20482;-75
2022/12/30 01:11:28;;;;;;;0.10;0.10;;;;;;;2.36;100.00;96145.69;4966575;28;20094;-74
2022/12/30 01:14:14;;;;;;;0.20;0.20;;;;;;;2.41;100.00;96166.19;4963431;28;20136;-75
2022/12/30 01:17:00;;;;;;;0.20;0.20;;;;;;;2.37;100.00;96165.78;4962123;28;20085;-75
2022/12/30 01:19:46;;;;;;;0.13;0.13;;;;;;;2.35;100.00;96175.75;4966451;28;20047;-75
2022/12/30 01:22:32;;;;;;;0.20;0.20;;;;;;;2.30;100.00;96183.47;4962750;28;20035;-75
2022/12/30 01:25:19;;;;;;;0.20;0.20;;;;;;;2.28;100.00;96188.13;4964387;28;20339;-75
2022/12/30 01:28:04;;;;;;;0.20;0.20;;;;;;;2.22;100.00;96183.66;4964278;28;20042;-72
2022/12/30 01:30:50;;;;;;;0.20;0.20;;;;;;;2.22;100.00;96188.94;4963833;28;20512;-76
2022/12/30 01:33:37;;;;;;;0.20;0.20;;;;;;;2.19;100.00;96184.06;4966477;28;20240;-72
2022/12/30 01:36:23;;;;;;;0.20;0.20;;;;;;;2.13;100.00;96180.41;4963590;28;20443;-71
2022/12/30 01:39:08;;;;;;;0.13;0.13;;;;;;;2.07;100.00;96185.69;4962502;28;20466;-73
2022/12/30 01:41:55;;;;;;;0.20;0.20;;;;;;;2.04;100.00;96186.09;4965673;28;20034;-72
2022/12/30 01:45:05;;;;;;;0.25;0.25;;;;;;;2.08;100.00;96193.38;4963124;28;20046;-74
2022/12/30 01:47:58;;;;;;;0.20;0.20;;;;;;;2.10;100.00;96190.53;4962221;28;20096;-74
2022/12/30 01:50:52;;;;;;;0.13;0.13;;;;;;;2.09;100.00;96188.91;4963451;28;20872;-73
2022/12/30 01:53:42;;;;;;;0.20;0.20;;;;;;;2.13;100.00;96192.78;4962389;28;20042;-73
2022/12/30 01:56:35;;;;;;;0.20;0.20;;;;;;;2.13;100.00;96200.72;4965268;28;20054;-71
2022/12/30 01:59:23;;;;;;;0.20;0.20;;;;;;;2.14;100.00;96197.06;4963184;28;20045;-73
2022/12/30 02:02:10;;;;;;;0.10;0.10;;;;;;;2.08;100.00;96187.31;4947822;28;20043;-73
2022/12/30 02:04:57;;;;;;;0.10;0.10;;;;;;;2.08;100.00;96200.50;4943860;28;20279;-70
2022/12/30 02:07:49;;;;;;;0.10;0.10;;;;;;;2.07;100.00;96198.88;4941850;28;20165;-74
2022/12/30 02:10:37;;;;;;;0.20;0.20;;;;;;;2.03;100.00;96198.47;4945600;28;20062;-73
2022/12/30 02:13:23;;;;;;;0.20;0.20;;;;;;;2.00;100.00;96193.59;4956446;28;20039;-71
2022/12/30 02:16:28;;;;;;;0.20;0.20;;;;;;;2.02;100.00;96201.28;4957531;28;20077;-73
2022/12/30 02:19:29;;;;;;;0.20;0.20;;;;;;;1.98;100.00;96203.53;4944487;28;20397;-71
2022/12/30 02:22:42;;;;;;;0.20;0.20;;;;;;;1.99;100.00;96204.34;4942673;28;20419;-73
2022/12/30 02:25:50;;;;;;;0.20;0.20;;;;;;;1.97;100.00;96207.19;4945813;28;20108;-72
2022/12/30 02:29:06;;;;;;;0.20;0.20;;;;;;;1.95;100.00;96223.22;4945611;28;20070;-72
2022/12/30 02:32:05;;;;;;;0.13;0.13;;;;;;;1.93;100.00;96216.50;4956216;28;20184;-73
2022/12/30 02:35:00;;;;;;;0.20;0.20;;;;;;;1.92;100.00;96207.78;4974052;28;20473;-74
2022/12/30 02:37:54;;;;;;;0.20;0.20;;;;;;;1.94;100.00;96223.41;4971417;28;20418;-73
2022/12/30 02:47:21;;;;;;;0.10;0.10;;;;;;;1.91;100.00;96219.34;4964233;28;20370;-71
2022/12/30 02:53:21;;;;;;;0.20;0.20;;;;;;;1.87;100.00;96218.16;4962836;28;20830;-72
2022/12/30 02:56:08;;;;;;;0.20;0.20;;;;;;;1.89;100.00;96215.28;4963553;28;20039;-73
2022/12/30 03:06:10;;;;;;;0.22;0.22;;;;;;;1.90;100.00;96206.38;4946218;28;20492;-73
2022/12/30 03:09:09;;;;;;;0.15;0.15;;;;;;;1.85;100.00;96196.41;4918419;28;20339;-71
2022/12/30 03:12:13;;;;;;;0.20;0.20;;;;;;;1.87;100.00;96190.94;4942587;28;20173;-73
2022/12/30 03:15:08;;;;;;;0.20;0.20;;;;;;;1.83;100.00;96185.25;4941732;28;20468;-73
2022/12/30 03:17:55;;;;;;;0.20;0.20;;;;;;;1.86;100.00;96200.66;4940574;28;20038;-73
2022/12/30 03:20:43;;;;;;;0.20;0.20;;;;;;;1.85;100.00;96201.69;4956906;28;20338;-74
2022/12/30 03:27:12;;;;;;;0.20;0.20;;;;;;;1.79;100.00;96214.84;4947827;28;20117;-73
2022/12/30 03:30:01;;;;;;;0.20;0.20;;;;;;;1.89;100.00;96213.47;4946525;28;20043;-73
2022/12/30 03:32:47;;;;;;;0.15;0.15;;;;;;;1.90;100.00;96223.00;4968003;28;20690;-73
2022/12/30 03:35:37;;;;;;;0.20;0.20;;;;;;;1.94;100.00;96232.13;4968003;28;20157;-72
2022/12/30 03:38:31;;;;;;;0.15;0.15;;;;;;;2.04;100.00;96234.41;4979817;28;20042;-73
2022/12/30 03:41:19;;;;;;;0.20;0.20;;;;;;;2.08;100.00;96234.81;4979413;28;20136;-73
2022/12/30 03:44:08;;;;;;;0.20;0.20;;;;;;;2.19;100.00;96239.53;4964724;28;20046;-74
2022/12/30 03:46:54;;;;;;;0.20;0.20;;;;;;;2.38;100.00;96245.81;4976786;28;20509;-75
2022/12/30 03:49:44;;;;;;;0.20;0.20;;;;;;;2.39;100.00;96226.31;4967511;28;20045;-72
2022/12/30 03:52:29;;;;;;;0.20;0.20;;;;;;;2.46;100.00;96241.16;4965709;28;20042;-74
2022/12/30 03:55:16;;;;;;;0.13;0.13;;;;;;;2.60;100.00;96249.09;4966748;28;20041;-73
2022/12/30 03:58:02;;;;;;;0.20;0.20;;;;;;;2.53;100.00;96232.44;4964835;28;20042;-70
2022/12/30 04:00:50;;;;;;;0.20;0.20;;;;;;;2.43;100.00;96230.19;4960682;28;20039;-74
2022/12/30 04:03:36;;;;;;;0.20;0.20;;;;;;;2.32;100.00;96214.94;4947539;28;20113;-73
2022/12/30 04:06:21;;;;;;;0.20;0.20;;;;;;;2.27;100.00;96223.47;4943632;28;20474;-72
2022/12/30 04:09:07;;;;;;;0.20;0.20;;;;;;;2.24;100.00;96229.97;4942911;28;20053;-75
2022/12/30 04:11:53;;;;;;;0.15;0.15;;;;;;;2.38;100.00;96232.63;4945536;28;20038;-74
2022/12/30 04:14:39;;;;;;;0.13;0.13;;;;;;;2.28;100.00;96243.59;4945670;28;20047;-73
2022/12/30 04:17:25;;;;;;;0.20;0.20;;;;;;;2.25;100.00;96228.13;4946329;28;20078;-74
2022/12/30 04:20:11;;;;;;;0.20;0.20;;;;;;;2.26;100.00;96226.31;4947110;28;20293;-72
2022/12/30 04:22:58;;;;;;;0.20;0.20;;;;;;;2.20;100.00;96220.03;4942947;28;20078;-73
2022/12/30 04:25:44;;;;;;;0.20;0.20;;;;;;;2.28;100.00;96224.28;4947203;28;20047;-73
2022/12/30 04:28:30;;;;;;;0.20;0.20;;;;;;;2.42;100.00;96213.53;4946980;28;20049;-74
2022/12/30 04:31:16;;;;;;;0.13;0.13;;;;;;;2.54;100.00;96212.91;4944684;28;20050;-72
2022/12/30 04:34:02;;;;;;;0.20;0.20;;;;;;;2.55;100.00;96214.53;4942808;28;20053;-75
2022/12/30 04:36:48;;;;;;;0.20;0.20;;;;;;;2.61;100.00;96214.53;4945083;28;20420;-74
2022/12/30 04:39:34;;;;;;;0.10;0.10;;;;;;;2.62;100.00;96215.34;4946369;28;20066;-73
2022/12/30 04:42:19;;;;;;;0.20;0.20;;;;;;;2.78;100.00;96226.31;4943369;28;20094;-74
2022/12/30 04:45:06;;;;;;;0.13;0.13;;;;;;;2.85;100.00;96210.44;4945785;28;20034;-71
2022/12/30 04:47:52;;;;;;;0.17;0.17;;;;;;;2.97;100.00;96224.66;4945898;28;20373;-74
2022/12/30 04:50:43;;;;;;;0.20;0.20;;;;;;;3.08;100.00;96226.66;4946028;28;20259;-74
2022/12/30 04:53:33;;;;;;;0.20;0.20;;;;;;;3.15;100.00;96224.00;4945421;28;20664;-74
2022/12/30 04:56:19;;;;;;;0.20;0.20;;;;;;;3.16;100.00;96233.56;4941793;28;20039;-74
2022/12/30 04:59:05;;;;;;;0.20;0.20;;;;;;;3.12;100.00;96232.38;4940199;28;20109;-72
2022/12/30 05:01:51;;;;;;;0.20;0.20;;;;;;;3.18;100.00;96230.72;4958089;28;20053;-74
2022/12/30 05:04:36;;;;;;;0.22;0.20;;;;;;;3.16;100.00;96232.75;4966336;28;20045;-73
2022/12/30 05:07:22;;;;;;;0.10;0.10;;;;;;;3.21;100.00;96236.41;4962939;28;20042;-75
2022/12/30 05:10:08;;;;;;;0.20;0.20;;;;;;;3.22;100.00;96240.69;4965308;28;20046;-73
2022/12/30 05:12:54;;;;;;;0.20;0.20;;;;;;;3.30;100.00;96234.34;4963927;28;20755;-75
2022/12/30 05:15:40;;;;;;;0.20;0.20;;;;;;;3.34;100.00;96230.25;4964936;28;20386;-73
2022/12/30 05:18:26;;;;;;;0.20;0.20;;;;;;;3.34;100.00;96243.47;4965602;28;20888;-72
2022/12/30 05:21:12;;;;;;;0.20;0.20;;;;;;;3.37;100.00;96255.50;4967018;28;20042;-74
2022/12/30 05:27:02;;;;;;;0.20;0.20;;;;;;;3.33;100.00;96250.59;4962515;28;20151;-74
2022/12/30 05:29:48;;;;;;;0.17;0.17;;;;;;;3.40;100.00;96253.22;4962221;28;20541;-75
2022/12/30 05:32:34;;;;;;;0.20;0.20;;;;;;;3.37;100.00;96243.09;4964937;28;20337;-72
2022/12/30 05:35:20;;;;;;;0.20;0.20;;;;;;;3.41;100.00;96241.63;4964616;28;20263;-74
2022/12/30 05:38:06;;;;;;;0.10;0.10;;;;;;;3.39;100.00;96261.38;4959572;28;20132;-72
2022/12/30 05:40:52;;;;;;;0.20;0.20;;;;;;;3.48;100.00;96263.59;4965832;28;20088;-72
2022/12/30 05:43:39;;;;;;;0.20;0.20;;;;;;;3.53;100.00;96269.06;4964710;28;20614;-73
2022/12/30 05:46:24;;;;;;;0.20;0.20;;;;;;;3.53;100.00;96260.31;4964933;28;20132;-71
2022/12/30 05:49:11;;;;;;;0.17;0.17;;;;;;;3.56;100.00;96286.34;4962792;28;20062;-75
2022/12/30 05:51:56;;;;;;;0.20;0.20;;;;;;;3.52;100.00;96266.66;4973510;28;20046;-72
2022/12/30 05:54:43;;;;;;;0.10;0.10;;;;;;;3.60;100.00;96269.06;4963160;28;20177;-75
2022/12/30 05:57:31;;;;;;;0.20;0.20;;;;;;;3.60;100.00;96272.50;4964398;28;20070;-75
2022/12/30 06:00:17;;;;;;;0.20;0.20;;;;;;;3.62;100.00;96272.28;4962873;28;20366;-75
2022/12/30 06:03:03;;;;;;;0.13;0.13;;;;;;;3.56;100.00;96276.59;4942975;28;20161;-72
2022/12/30 06:05:58;;;;;;;0.20;0.20;;;;;;;3.62;100.00;96259.88;4941932;28;20184;-74
2022/12/30 06:08:44;;;;;;;0.20;0.20;;;;;;;3.62;100.00;96256.41;4957000;28;20747;-75
2022/12/30 06:11:30;;;;;;;0.10;0.10;;;;;;;3.51;100.00;96257.09;4948045;28;20242;-71
2022/12/30 06:14:17;;;;;;;0.20;0.20;;;;;;;3.49;100.00;96251.97;4942462;28;20498;-74
2022/12/30 06:17:05;;;;;;;0.20;0.20;;;;;;;3.56;100.00;96252.78;4942869;28;20429;-71
2022/12/30 06:19:51;;;;;;;0.20;0.20;;;;;;;3.66;100.00;96247.06;4943668;28;20039;-72
2022/12/30 06:22:36;;;;;;;0.20;0.20;;;;;;;3.71;100.00;96249.06;4946053;28;20117;-73
2022/12/30 06:25:22;;;;;;;0.10;0.10;;;;;;;3.74;100.00;96246.00;4946430;28;20053;-75
2022/12/30 06:28:08;;;;;;;0.20;0.20;;;;;;;3.73;100.00;96245.16;4942712;28;20432;-72
2022/12/30 06:30:54;;;;;;;0.20;0.20;;;;;;;3.73;100.00;96255.75;4945382;28;20055;-74
2022/12/30 06:33:40;;;;;;;0.20;0.20;;;;;;;3.71;100.00;96247.22;4944798;28;20115;-74
2022/12/30 06:36:26;;;;;;;0.20;0.20;;;;;;;3.61;100.00;96246.88;4944470;28;20046;-73
2022/12/30 06:39:11;;;;;;;0.10;0.10;;;;;;;3.55;100.00;96245.84;4942052;28;20058;-71
2022/12/30 06:42:00;;;;;;;0.20;0.20;;;;;;;3.53;100.00;96250.56;4946475;28;20050;-75
2022/12/30 06:44:46;;;;;;;0.20;0.20;;;;;;;3.45;100.00;96244.69;4944363;28;20042;-74
2022/12/30 06:47:32;;;;;;;0.20;0.20;;;;;;;3.39;100.00;96245.50;4942938;28;20038;-73
2022/12/30 06:50:18;;;;;;;0.20;0.20;;;;;;;3.29;100.00;96230.09;4943237;28;20311;-74
2022/12/30 06:53:05;;;;;;;0.10;0.10;;;;;;;3.28;100.00;96225.81;4942862;28;20053;-74
2022/12/30 06:55:51;;;;;;;0.20;0.20;;;;;;;3.24;100.00;96216.66;4946172;28;20415;-71
2022/12/30 06:58:36;;;;;;;0.20;0.20;;;;;;;3.17;100.00;96219.31;4946048;28;20039;-73
2022/12/30 07:01:22;;;;;;;0.20;0.20;;;;;;;3.06;100.00;96212.03;4959317;28;20047;-71
2022/12/30 07:04:08;;;;;;;0.20;0.20;;;;;;;2.94;100.00;96208.38;4945593;28;20467;-73
2022/12/30 07:06:56;;;;;;;0.20;0.20;;;;;;;2.87;100.00;96208.41;4946829;28;20467;-74
2022/12/30 07:09:43;;;;;;;0.10;0.10;;;;;;;2.83;100.00;96195.81;4947415;28;21084;-75
2022/12/30 07:12:32;;;;;;;0.20;0.20;;;;;;;2.91;100.00;96196.41;4947928;28;20051;-74
2022/12/30 07:15:18;;;;;;;0.20;0.20;;;;;;;2.95;100.00;96210.81;4947943;28;20914;-72
2022/12/30 07:18:04;;;;;;;0.15;0.15;;;;;;;2.93;100.00;96199.66;4956846;28;20210;-74
2022/12/30 07:20:50;;;;;;;0.20;0.20;;;;;;;2.80;100.00;96202.31;4948823;28;20096;-73
2022/12/30 07:23:36;;;;;;;0.20;0.20;;;;;;;2.78;100.00;96205.16;4949018;28;20125;-74
2022/12/30 07:26:22;;;;;;;0.20;0.20;;;;;;;2.84;100.00;96213.28;4947124;28;20138;-72
2022/12/30 07:29:08;;;;;;;0.20;0.20;;;;;;;2.84;100.00;96214.09;4947040;28;20046;-73
2022/12/30 07:31:54;;;;;;;0.20;0.20;;;;;;;2.76;100.00;96212.50;4949655;28;20572;-73
2022/12/30 07:34:39;;;;;;;0.20;0.20;;;;;;;2.85;100.00;96215.72;4950529;28;20047;-72
2022/12/30 07:37:25;;;;;;;0.20;0.20;;;;;;;2.90;100.00;96213.28;4947758;28;20038;-75
2022/12/30 07:40:11;;;;;;;0.20;0.20;;;;;;;2.93;100.00;96209.41;4949134;28;20035;-74
2022/12/30 07:42:57;;;;;;;0.20;0.20;;;;;;;2.94;100.00;96203.09;4948928;28;20604;-74
2022/12/30 07:45:43;;;;;;;0.10;0.10;;;;;;;2.99;100.00;96214.69;4952668;28;20577;-75
2022/12/30 07:48:29;;;;;;;0.20;0.20;;;;;;;3.08;100.00;96208.16;4948798;28;20043;-75
2022/12/30 07:51:16;;;;;;;0.20;0.20;;;;;;;3.17;100.00;96224.59;4948747;28;20042;-74
2022/12/30 07:54:02;;;;;;;0.17;0.17;;;;;;;3.18;100.00;96226.22;4949898;28;20237;-74
2022/12/30 07:56:48;;;;;;;0.20;0.20;;;;;;;3.19;100.00;96227.88;4949423;28;20082;-75
2022/12/30 07:59:34;;;;;;;0.20;0.20;;;;;;;3.28;100.00;96217.88;4949031;28;20047;-71
2022/12/30 08:02:20;;;;;;;0.20;0.20;;;;;;;3.31;100.00;96225.41;4948426;28;20357;-74
2022/12/30 08:05:07;;;;;;;0.20;0.20;;;;;;;3.30;100.00;96218.47;4948793;28;20050;-73
2022/12/30 08:07:53;;;;;;;0.10;0.10;;;;;;;3.37;100.00;96223.75;4947271;28;20046;-72
2022/12/30 08:10:39;;;;;;;0.10;0.10;;;;;;;3.41;100.00;96214.38;4959844;28;20118;-75
2022/12/30 08:13:25;;;;;;;0.10;0.10;;;;;;;3.39;100.00;96217.22;4949745;28;20484;-73
2022/12/30 08:16:16;;;;;;;0.20;0.20;;;;;;;3.45;100.00;96197.06;4948228;28;20773;-75
2022/12/30 08:19:02;;;;;;;0.20;0.20;;;;;;;3.53;100.00;96197.63;4948682;28;20479;-75
2022/12/30 08:21:51;;;;;;;0.15;0.15;;;;;;;3.64;100.00;96196.97;4947875;28;20050;-75
2022/12/30 08:24:36;;;;;;;0.20;0.20;;;;;;;3.63;100.00;96192.69;4949157;28;20459;-74
2022/12/30 08:27:22;;;;;;;0.20;0.20;;;;;;;3.66;100.00;96199.41;4949016;28;20050;-75
2022/12/30 08:30:09;;;;;;;0.20;0.20;;;;;;;3.70;100.00;96197.16;4950984;28;20141;-75
2022/12/30 08:32:55;;;;;;;0.20;0.20;;;;;;;3.79;100.00;96180.00;4968296;28;20046;-75
2022/12/30 08:35:41;;;;;;;0.10;0.10;;;;;;;3.88;100.00;96190.13;4968675;28;20038;-70
2022/12/30 08:38:26;;;;;;;0.20;0.20;;;;;;;3.84;100.00;96180.19;4967991;28;20124;-73
2022/12/30 08:41:22;;;;;;;0.20;0.20;;;;;;;3.89;100.00;96169.75;4970348;28;20034;-73
2022/12/30 08:44:09;;;;;;;0.10;0.10;;;;;;;3.96;100.00;96180.31;4969640;28;20050;-74
2022/12/30 08:46:55;;;;;;;0.10;0.10;;;;;;;3.99;100.00;96172.75;4968611;28;20472;-74
2022/12/30 08:49:41;;;;;;;0.20;0.20;;;;;;;3.98;100.00;96165.84;4968678;28;20050;-72
2022/12/30 08:52:27;;;;;;;0.13;0.13;;;;;;;3.95;100.00;96168.09;4966644;28;20623;-74
2022/12/30 08:55:16;;;;;;;0.20;0.20;;;;;;;3.99;100.00;96164.81;4966464;28;20096;-73
2022/12/30 08:58:01;;;;;;;0.20;0.20;;;;;;;4.05;100.00;96150.72;4966777;28;20042;-74
2022/12/30 09:00:47;;;;;;;0.20;0.20;;;;;;;4.08;100.00;96158.22;4963765;28;20483;-74
2022/12/30 09:03:33;;;;;;;0.10;0.10;;;;;;;4.22;100.00;96150.19;4948207;28;20093;-72
2022/12/30 09:06:22;;;;;;;0.10;0.10;;;;;;;4.27;100.00;96145.84;4947549;28;20043;-74
2022/12/30 09:09:10;;;;;;;0.20;0.20;;;;;;;4.36;100.00;96149.88;4948461;28;20081;-72
2022/12/30 09:11:56;;;;;;;0.10;0.10;;;;;;;4.31;100.00;96138.28;4948594;28;20312;-73
2022/12/30 09:14:44;;;;;;;0.20;0.20;;;;;;;4.28;100.00;96130.75;4947788;28;20054;-74
2022/12/30 09:17:30;;;;;;;0.10;0.10;;;;;;;4.25;100.00;96126.72;4947327;28;20845;-74
2022/12/30 09:20:16;;;;;;;0.20;0.20;;;;;;;4.32;100.00;96106.28;4961653;28;20265;-72
2022/12/30 09:23:02;;;;;;;0.10;0.10;;;;;;;4.22;100.00;96099.88;4947929;28;21005;-74
2022/12/30 09:25:48;;;;;;;0.20;0.20;;;;;;;4.23;100.00;96090.91;4946651;28;20375;-72
2022/12/30 09:28:35;;;;;;;0.10;0.10;;;;;;;4.29;100.00;96088.19;4946871;28;20065;-74
2022/12/30 09:31:21;;;;;;;0.20;0.20;;;;;;;4.21;100.00;96083.16;4948224;28;20043;-73
2022/12/30 09:34:06;;;;;;;0.20;0.20;;;;;;;4.28;100.00;96085.72;4946715;28;20035;-72
2022/12/30 09:36:52;;;;;;;0.20;0.20;;;;;;;4.35;100.00;96074.03;4945185;28;20047;-72
2022/12/30 09:39:38;;;;;;;0.10;0.10;;;;;;;4.31;100.00;96072.06;4948377;28;20623;-74
2022/12/30 09:46:01;;;;;;;0.20;0.20;;;;;;;4.45;100.00;96070.91;4948899;28;20042;-73
2022/12/30 09:49:21;;;;;;;0.20;0.20;;;;;;;4.57;100.00;96074.44;4946303;28;20050;-74
2022/12/30 09:52:16;;;;;;;0.10;0.10;;;;;;;4.58;100.00;96062.81;4946898;28;20074;-73
2022/12/30 09:55:09;;;;;;;0.20;0.20;;;;;;;4.70;100.00;96054.97;4948516;28;20039;-72
2022/12/30 09:58:00;;;;;;;0.20;0.20;;;;;;;4.74;100.00;96056.94;4948088;28;20038;-73
2022/12/30 10:00:47;;;;;;;0.20;0.20;;;;;;;4.71;100.00;96052.06;4948442;28;20048;-74
2022/12/30 10:03:33;;;;;;;0.20;0.20;;;;;;;4.75;100.00;96026.75;4967364;28;20169;-72
2022/12/30 10:06:28;;;;;;;0.20;0.20;;;;;;;4.94;100.00;96034.69;4968227;28;20042;-72
2022/12/30 10:09:20;;;;;;;0.10;0.10;;;;;;;4.84;100.00;96039.72;4966593;28;20050;-73
2022/12/30 10:12:08;;;;;;;0.20;0.20;;;;;;;4.97;100.00;96007.72;4967624;28;20243;-75
2022/12/30 10:15:23;;;;;;;0.17;0.17;;;;;;;4.84;100.00;96006.06;4966743;28;20165;-75
2022/12/30 10:18:39;;;;;;;0.20;0.20;;;;;;;5.00;100.00;96016.03;4965378;28;20050;-74
2022/12/30 10:21:30;;;;;;;0.10;0.10;;;;;;;4.94;100.00;96008.19;4965514;28;20380;-73
2022/12/30 10:24:35;;;;;;;0.20;0.20;;;;;;;4.78;100.00;96001.66;4967408;28;20578;-73
2022/12/30 10:27:26;;;;;;;0.10;0.10;;;;;;;4.89;100.00;96011.47;4967871;28;20050;-75
2022/12/30 10:30:21;;;;;;;0.20;0.20;;;;;;;4.82;100.00;95992.19;4964416;28;20088;-72
2022/12/30 10:33:15;;;;;;;0.13;0.13;;;;;;;4.85;100.00;95997.06;4965886;28;20085;-72
2022/12/30 10:36:10;;;;;;;0.20;0.20;;;;;;;4.91;100.00;95982.94;4965491;28;20046;-73
2022/12/30 10:39:05;;;;;;;0.20;0.20;;;;;;;5.08;100.00;95977.00;4963224;28;20097;-74
2022/12/30 10:42:29;;;;;;;0.10;0.10;;;;;;;5.11;100.00;95973.88;4965985;28;20582;-75
2022/12/30 10:45:44;;;;;;;0.20;0.20;;;;;;;5.17;100.00;95976.44;4964659;28;20034;-72
2022/12/30 10:48:48;;;;;;;0.20;0.20;;;;;;;5.22;100.00;95963.31;4963765;28;20450;-74
2022/12/30 10:51:34;;;;;;;0.20;0.20;;;;;;;5.59;100.00;95957.84;4965687;28;20089;-74
2022/12/30 10:54:19;;;;;;;0.10;0.10;;;;;;;5.66;100.00;95947.13;4964703;28;20057;-76
2022/12/30 10:57:15;;;;;;;0.20;0.20;;;;;;;5.54;100.00;95949.78;4964011;28;20335;-75
2022/12/30 11:00:02;;;;;;;0.20;0.20;;;;;;;6.27;100.00;95936.03;4951532;28;20061;-73
2022/12/30 11:02:55;;;;;;;0.20;0.20;;;;;;;6.78;100.00;95945.06;4945287;28;20086;-76
2022/12/30 11:05:40;;;;;;;0.10;0.10;;;;;;;6.37;100.00;95949.53;4948214;28;20053;-76
2022/12/30 11:08:29;;;;;;;0.20;0.20;;;;;;;6.01;100.00;95953.28;4948035;28;20049;-72
2022/12/30 11:11:15;;;;;;;0.10;0.10;;;;;;;6.20;100.00;95947.84;4949617;28;20042;-73
2022/12/30 11:17:14;;;;;;;0.20;0.20;;;;;;;5.84;100.00;95937.22;4947232;28;20038;-75
2022/12/30 11:20:36;;;;;;;0.15;0.15;;;;;;;5.66;100.00;95926.69;4946996;28;21093;-74
2022/12/30 11:23:25;;;;;;;0.13;0.13;;;;;;;5.50;100.00;95901.63;4948172;28;20085;-73
2022/12/30 11:26:21;;;;;;;0.10;0.10;;;;;;;5.57;100.00;95906.84;4949089;28;20057;-73
2022/12/30 11:29:09;;;;;;;0.20;0.20;;;;;;;5.59;100.00;95902.91;4958650;28;20419;-74
2022/12/30 11:31:55;;;;;;;0.17;0.17;;;;;;;5.54;100.00;95884.22;4945746;28;20049;-74
2022/12/30 11:34:46;;;;;;;0.13;0.13;;;;;;;5.52;100.00;95906.72;4940265;28;20039;-75
2022/12/30 11:37:35;;;;;;;0.10;0.10;;;;;;;5.50;100.00;95893.66;4604562;28;10000614;-74
2022/12/30 11:40:26;;;;;;;0.10;0.10;;;;;;;5.49;100.00;95885.94;4945683;28;20043;-71
2022/12/30 11:43:17;;;;;;;0.10;0.10;;;;;;;5.39;100.00;95880.41;4946227;28;20216;-74
2022/12/30 11:46:07;;;;;;;0.17;0.17;;;;;;;5.37;100.00;95885.13;4944553;28;20043;-73
2022/12/30 11:48:56;;;;;;;0.20;0.20;;;;;;;5.36;100.00;95894.13;4943844;28;20053;-74
2022/12/30 11:51:47;;;;;;;0.10;0.10;;;;;;;5.30;100.00;95878.09;4944769;28;20477;-74
2022/12/30 11:54:47;;;;;;;0.20;0.20;;;;;;;5.30;100.00;95858.72;4945446;28;20061;-73
2022/12/30 11:57:38;;;;;;;0.13;0.13;;;;;;;5.27;100.00;95849.34;4946898;28;20039;-74
2022/12/30 12:00:33;;;;;;;;;;;;;;;5.38;100.00;95849.59;4947156;28;20500;-74
2022/12/30 12:03:18;;;;;;;0.20;0.20;;;;;;;5.27;100.00;95822.00;4966436;28;20336;-74
2022/12/30 12:06:08;;;;;;;0.10;0.10;;;;;;;5.29;100.00;95814.63;4966101;28;20065;-72
2022/12/30 12:09:07;;;;;;;0.17;0.17;;;;;;;5.25;100.00;95819.59;4963926;28;20049;-75
2022/12/30 12:11:54;;;;;;;0.20;0.20;;;;;;;5.24;100.00;95801.28;4964320;28;20050;-74
2022/12/30 12:14:56;;;;;;;0.20;0.20;;;;;;;5.19;100.00;95812.56;4964321;28;20303;-73
2022/12/30 12:18:01;;;;;;;0.10;0.10;;;;;;;5.20;100.00;95794.78;4965139;28;20432;-74
2022/12/30 12:20:54;;;;;;;0.15;0.15;;;;;;;5.07;100.00;95792.38;4965399;28;20041;-74
2022/12/30 12:23:49;;;;;;;0.20;0.20;;;;;;;5.02;100.00;95779.81;4964814;28;20387;-72
2022/12/30 12:26:54;;;;;;;0.20;0.20;;;;;;;4.93;100.00;95786.50;4967665;28;20035;-75
2022/12/30 12:29:40;;;;;;;0.20;0.20;;;;;;;4.85;100.00;95777.03;4964903;28;20034;-72
2022/12/30 12:32:48;;;;;;;0.20;0.20;;;;;;;4.84;100.00;95766.66;4945753;28;20575;-72
2022/12/30 12:35:46;;;;;;;0.20;0.20;;;;;;;4.78;100.00;95756.97;4946598;28;20149;-72
2022/12/30 12:38:44;;;;;;;0.20;0.20;;;;;;;4.66;100.00;95741.84;4947313;28;20046;-73
2022/12/30 12:41:49;;;;;;;0.13;0.13;;;;;;;4.58;100.00;95739.50;4947661;28;20387;-74
2022/12/30 12:45:06;;;;;;;0.10;0.10;;;;;;;4.50;100.00;95734.56;4946160;28;20070;-72
2022/12/30 12:48:18;;;;;;;0.10;0.10;;;;;;;4.44;100.00;95728.34;4945076;28;20088;-72
2022/12/30 12:51:31;;;;;;;0.22;0.22;;;;;;;4.46;100.00;95730.75;4946607;28;20468;-74
2022/12/30 12:54:19;;;;;;;0.20;0.20;;;;;;;4.46;100.00;95726.25;4947136;28;20070;-74
2022/12/30 12:57:41;;;;;;;0.10;0.10;;;;;;;4.43;100.00;95718.75;4945321;28;20692;-73
2022/12/30 13:01:26;;;;;;;0.15;0.15;;;;;;;4.41;100.00;95712.88;4949243;28;20555;-72
2022/12/30 13:04:31;;;;;;;0.20;0.20;;;;;;;4.42;100.00;95711.03;4886714;29;20062;-73
2022/12/30 13:07:34;;;;;;;0.20;0.20;;;;;;;4.42;100.00;95697.78;4889075;29;20417;-72
2022/12/30 13:10:28;;;;;;;0.17;0.17;;;;;;;4.30;100.00;95687.19;4949236;28;20339;-74
2022/12/30 13:13:18;;;;;;;0.20;0.20;;;;;;;4.27;100.00;95679.69;4946932;28;20586;-74
2022/12/30 13:16:15;;;;;;;0.20;0.20;;;;;;;4.37;100.00;95673.84;4946107;28;20129;-74
2022/12/30 13:19:03;;;;;;;0.17;0.17;;;;;;;4.28;100.00;95677.84;4946494;28;20416;-73
2022/12/30 13:21:52;;;;;;;0.15;0.15;;;;;;;4.26;100.00;95656.06;4946964;28;20069;-74
2022/12/30 13:24:44;;;;;;;0.10;0.10;;;;;;;4.29;100.00;95651.16;4947319;28;20101;-73
2022/12/30 13:27:32;;;;;;;0.10;0.10;;;;;;;4.25;100.00;95654.47;4947792;28;20141;-72
2022/12/30 13:30:20;;;;;;;0.10;0.10;;;;;;;4.21;100.00;95640.88;4948008;28;20747;-72
2022/12/30 13:33:31;;;;;;;0.10;0.10;;;;;;;4.22;100.00;95644.34;4960103;28;20047;-72
2022/12/30 13:36:26;;;;;;;0.20;0.20;;;;;;;4.17;100.00;95637.88;4913477;28;20051;-73
2022/12/30 13:39:29;;;;;;;0.20;0.20;;;;;;;4.22;100.00;95610.72;4946191;28;20607;-73
2022/12/30 13:42:33;;;;;;;0.10;0.10;;;;;;;4.16;100.00;95607.13;4960364;28;20199;-72
2022/12/30 13:45:29;;;;;;;0.20;0.20;;;;;;;4.11;100.00;95593.75;4947747;28;20058;-75
2022/12/30 13:48:20;;;;;;;0.20;0.20;;;;;;;4.19;100.00;95597.91;4947791;28;20050;-71
2022/12/30 13:51:18;;;;;;;0.20;0.20;;;;;;;4.21;100.00;95595.06;4944500;28;20031;-72
2022/12/30 13:54:04;;;;;;;0.10;0.10;;;;;;;4.23;100.00;95593.78;4945217;28;20409;-75
2022/12/30 13:56:51;;;;;;;0.10;0.10;;;;;;;4.18;100.00;95575.94;4947413;28;20047;-75
2022/12/30 13:59:38;;;;;;;0.20;0.20;;;;;;;4.22;100.00;95581.59;4945989;28;20047;-75
2022/12/30 14:02:24;;;;;;;0.20;0.20;;;;;;;4.24;100.00;95565.47;4944959;28;20058;-74
2022/12/30 14:05:51;;;;;;;0.10;0.10;;;;;;;4.23;100.00;95556.72;4945966;28;20431;-75
2022/12/30 14:08:40;;;;;;;0.20;0.20;;;;;;;4.17;100.00;95541.75;4945377;28;20443;-73
2022/12/30 14:11:26;;;;;;;0.20;0.20;;;;;;;4.21;100.00;95569.38;4944916;28;20120;-72
2022/12/30 14:14:20;;;;;;;0.20;0.20;;;;;;;4.15;100.00;95549.13;4957661;28;20717;-73
2022/12/30 14:17:12;;;;;;;0.10;0.10;;;;;;;4.21;100.00;95558.78;4949884;28;20520;-73
2022/12/30 14:20:07;;;;;;;0.10;0.10;;;;;;;4.21;100.00;95558.00;4943625;28;20571;-74
2022/12/30 14:22:55;;;;;;;0.20;0.20;;;;;;;4.18;100.00;95565.34;4936441;28;20066;-75
2022/12/30 14:25:42;;;;;;;0.20;0.20;;;;;;;4.17;100.00;95568.22;4939078;28;20748;-73
2022/12/30 14:28:27;;;;;;;0.20;0.20;;;;;;;4.14;100.00;95561.56;4937958;28;20519;-74